This is the latest recevied weather packets stored in our database for station/object OE-11121. If no packets are shown the sender has not sent any weather packets the latest 10 day(s).
| Time | Temp. | Humidity | Pressure | Rain* | Wind** | Luminosity | Snow |
|---|---|---|---|---|---|---|---|
| 1787770533 | 21.11° C | 71% | 1014.6 hPa | 0 mm | - | 0 W/m² | - |
| 1787769706 | 22.22° C | 68% | 1014.1 hPa | 0 mm | - | 0 W/m² | - |
| 1787769333 | 22.78° C | 63% | 1013.7 hPa | 0 mm | - | 0 W/m² | - |
| 1787768733 | 23.33° C | 63% | 1013.7 hPa | 0 mm | - | 0 W/m² | - |
| 1787767907 | 23.33° C | 64% | 1013.6 hPa | 0 mm | - | 12 W/m² | - |
| 1787767533 | 23.33° C | 63% | 1013.3 hPa | 0 mm | - | 24 W/m² | - |
| 1787766933 | 23.89° C | 61% | 1013.2 hPa | 0 mm | - | 24 W/m² | - |
| 1787766106 | 23.33° C | 65% | 1013.2 hPa | 0 mm | - | 48 W/m² | - |
| 1787765733 | 25° C | 58% | 1012.9 hPa | 0 mm | - | 84 W/m² | - |
| 1787765133 | 25° C | 56% | 1012.8 hPa | 0 mm | - | 96 W/m² | - |
| 1787764306 | 25° C | 59% | 1012.7 hPa | 0 mm | - | 72 W/m² | - |
| 1787763933 | 26.11° C | 51% | 1012.7 hPa | 0 mm | - | 108 W/m² | - |
| 1787763332 | 26.11° C | 51% | 1012.5 hPa | 0 mm | - | 228 W/m² | - |
| 1787762506 | 26.67° C | 51% | 1012.5 hPa | 0 mm | - | 204 W/m² | - |
| 1787762133 | 26.67° C | 50% | 1012.4 hPa | 0 mm | - | 252 W/m² | - |
| 1787761533 | 26.67° C | 50% | 1012.5 hPa | 0 mm | - | 240 W/m² | - |
| 1787760706 | 26.11° C | 51% | 1012.7 hPa | 0 mm | - | 228 W/m² | - |
| 1787760333 | 26.67° C | 50% | 1012.6 hPa | 0 mm | - | 192 W/m² | - |
| 1787759733 | 26.67° C | 50% | 1012.6 hPa | 0 mm | - | 204 W/m² | - |
| 1787758906 | 26.67° C | 47% | 1012.6 hPa | 0 mm | - | 216 W/m² | - |
| 1787758532 | 26.67° C | 46% | 1012.6 hPa | 0 mm | - | 361 W/m² | - |
| 1787757933 | 27.22° C | 48% | 1012.6 hPa | 0 mm | - | 361 W/m² | - |
| 1787757106 | 27.22° C | 49% | 1012.6 hPa | 0 mm | - | 385 W/m² | - |
| 1787756733 | 27.22° C | 52% | 1012.8 hPa | 0 mm | - | 469 W/m² | - |
| 1787756133 | 27.22° C | 50% | 1012.9 hPa | 0 mm | - | 397 W/m² | - |
* Rain latest hour (hover to see other rain measurements)
** Current wind speed in m/s (hover to see current wind gust speed)